Time;durP1;ratioP1;P1;durP2;ratioP2;P2;SDS_P1;SDS_P2;PMS_P1;PMS_P2;Temp;Humidity;BMP_temperature;BMP_pressure;BME280_temperature;BME280_humidity;BME280_pressure;Samples;Min_cycle;Max_cycle;Signal;HPM_P1;HPM_P2
2023/05/09 00:00:17;;;;;;;15.47;11.10;;;;;;;;;;4955356;29;20191;-73
2023/05/09 00:03:22;;;;;;;13.47;10.53;;;;;;;;;;4965344;28;20230;-73
2023/05/09 00:06:26;;;;;;;14.50;11.37;;;;;;;;;;4943445;29;20520;-73
2023/05/09 00:09:30;;;;;;;13.80;11.00;;;;;;;;;;4954312;29;20527;-72
2023/05/09 00:12:34;;;;;;;15.50;11.13;;;;;;;;;;4954908;29;20223;-72
2023/05/09 00:15:38;;;;;;;12.70;10.93;;;;;;;;;;4954091;29;20203;-73
2023/05/09 00:18:43;;;;;;;14.70;11.67;;;;;;;;;;4965310;28;20646;-73
2023/05/09 00:21:47;;;;;;;15.43;11.20;;;;;;;;;;4955149;29;20219;-73
2023/05/09 00:24:51;;;;;;;17.70;10.90;;;;;;;;;;4954844;29;20639;-73
2023/05/09 00:27:55;;;;;;;13.87;11.27;;;;;;;;;;4965159;28;20187;-73
2023/05/09 00:30:59;;;;;;;15.53;12.00;;;;;;;;;;4965263;28;20183;-73
2023/05/09 00:34:03;;;;;;;16.90;12.80;;;;;;;;;;4965097;28;20527;-73
2023/05/09 00:37:08;;;;;;;15.53;11.17;;;;;;;;;;4953982;29;20208;-73
2023/05/09 00:40:12;;;;;;;15.07;11.40;;;;;;;;;;4965267;28;20196;-73
2023/05/09 00:43:16;;;;;;;14.70;11.90;;;;;;;;;;4965214;28;20223;-73
2023/05/09 00:46:21;;;;;;;15.50;11.07;;;;;;;;;;4943015;29;20184;-73
2023/05/09 00:49:25;;;;;;;15.40;12.07;;;;;;;;;;4964879;28;20211;-73
2023/05/09 00:52:29;;;;;;;13.87;11.40;;;;;;;;;;4954555;29;20219;-72
2023/05/09 00:55:33;;;;;;;15.43;11.83;;;;;;;;;;4965056;28;20218;-73
2023/05/09 00:58:37;;;;;;;13.00;10.53;;;;;;;;;;4953748;29;20191;-73
2023/05/09 01:01:42;;;;;;;15.93;11.27;;;;;;;;;;4953887;29;20234;-73
2023/05/09 01:04:46;;;;;;;12.80;10.37;;;;;;;;;;4964571;28;20203;-73
2023/05/09 01:08:14;;;;;;;13.50;10.63;;;;;;;;;;4954390;29;20191;-73
2023/05/09 01:11:30;;;;;;;15.10;10.50;;;;;;;;;;4954688;29;20226;-73
2023/05/09 01:14:49;;;;;;;11.93;9.70;;;;;;;;;;4953849;28;20551;-73
2023/05/09 01:18:14;;;;;;;13.37;9.63;;;;;;;;;;4957829;29;20192;-72
2023/05/09 01:21:31;;;;;;;15.57;10.20;;;;;;;;;;4968305;28;20231;-73
2023/05/09 01:25:12;;;;;;;12.50;9.47;;;;;;;;;;4946327;29;20195;-73
2023/05/09 01:28:35;;;;;;;11.43;8.80;;;;;;;;;;4968164;28;20183;-73
2023/05/09 01:31:42;;;;;;;13.47;8.73;;;;;;;;;;4956945;29;20686;-73
2023/05/09 01:34:48;;;;;;;11.77;8.93;;;;;;;;;;4968006;28;20180;-73
2023/05/09 01:37:54;;;;;;;10.47;9.13;;;;;;;;;;4945563;29;20187;-73
2023/05/09 01:40:59;;;;;;;12.80;8.73;;;;;;;;;;4945894;29;20187;-73
2023/05/09 01:44:07;;;;;;;10.90;8.90;;;;;;;;;;4957260;29;20192;-73
2023/05/09 01:47:15;;;;;;;13.47;9.90;;;;;;;;;;4967620;28;20175;-73
2023/05/09 01:50:21;;;;;;;11.13;9.33;;;;;;;;;;4945127;29;20199;-73
2023/05/09 01:53:27;;;;;;;10.73;8.53;;;;;;;;;;4957348;29;20199;-73
2023/05/09 01:56:31;;;;;;;12.47;8.63;;;;;;;;;;4956332;29;20220;-72
2023/05/09 01:59:40;;;;;;;10.20;8.40;;;;;;;;;;4957359;29;20192;-73
2023/05/09 02:02:45;;;;;;;10.13;7.60;;;;;;;;;;4967361;28;20215;-73
2023/05/09 02:05:49;;;;;;;10.43;8.17;;;;;;;;;;4967449;28;20184;-72
2023/05/09 02:08:54;;;;;;;10.03;7.80;;;;;;;;;;4967216;28;20183;-73
2023/05/09 02:11:58;;;;;;;9.73;8.23;;;;;;;;;;4945491;29;20219;-72
2023/05/09 02:15:04;;;;;;;10.43;7.80;;;;;;;;;;4967237;28;20180;-73
2023/05/09 02:18:09;;;;;;;10.73;7.80;;;;;;;;;;4956859;29;20176;-73
2023/05/09 02:21:13;;;;;;;9.70;7.80;;;;;;;;;;4944959;29;20183;-73
2023/05/09 02:24:18;;;;;;;9.67;8.00;;;;;;;;;;4944942;29;20187;-73
2023/05/09 02:27:22;;;;;;;8.70;7.20;;;;;;;;;;4966376;28;20183;-73
2023/05/09 02:30:32;;;;;;;8.43;7.37;;;;;;;;;;4945045;29;20187;-72
2023/05/09 02:33:38;;;;;;;11.07;7.40;;;;;;;;;;4956347;29;20199;-73
2023/05/09 02:36:42;;;;;;;10.53;7.53;;;;;;;;;;4966406;28;20219;-73
2023/05/09 02:39:46;;;;;;;14.97;7.73;;;;;;;;;;4956404;29;20199;-73
2023/05/09 02:42:50;;;;;;;9.93;7.23;;;;;;;;;;4944187;29;20219;-73
2023/05/09 02:45:54;;;;;;;13.83;7.50;;;;;;;;;;4944585;29;20180;-72
2023/05/09 02:49:00;;;;;;;8.33;6.60;;;;;;;;;;4966300;28;20238;-72
2023/05/09 02:52:05;;;;;;;7.63;6.53;;;;;;;;;;4966379;28;20223;-72
2023/05/09 02:55:09;;;;;;;9.00;7.27;;;;;;;;;;4956340;29;20203;-72
2023/05/09 02:58:16;;;;;;;8.43;7.07;;;;;;;;;;4955554;29;20180;-72
2023/05/09 03:01:21;;;;;;;9.17;6.73;;;;;;;;;;4944460;29;20211;-72
2023/05/09 03:04:26;;;;;;;8.70;6.40;;;;;;;;;;4966020;28;20188;-73
2023/05/09 03:07:30;;;;;;;8.50;7.10;;;;;;;;;;4955986;29;20183;-72
2023/05/09 03:10:36;;;;;;;7.73;6.77;;;;;;;;;;4965905;28;20188;-72
2023/05/09 03:13:40;;;;;;;9.10;6.80;;;;;;;;;;4966152;28;20631;-73
2023/05/09 03:16:44;;;;;;;8.87;6.90;;;;;;;;;;4954918;29;20683;-72
2023/05/09 03:19:58;;;;;;;8.57;7.00;;;;;;;;;;4944287;29;20187;-73
2023/05/09 03:23:02;;;;;;;7.70;6.50;;;;;;;;;;4944117;29;20211;-72
2023/05/09 03:26:06;;;;;;;10.83;6.77;;;;;;;;;;4966016;28;20180;-73
2023/05/09 03:29:10;;;;;;;8.40;6.83;;;;;;;;;;4955125;29;20619;-73
2023/05/09 03:32:15;;;;;;;7.10;6.40;;;;;;;;;;4943897;29;20219;-73
2023/05/09 03:35:20;;;;;;;7.80;6.97;;;;;;;;;;4966066;28;20187;-73
2023/05/09 03:38:24;;;;;;;7.40;5.93;;;;;;;;;;4942941;28;20536;-72
2023/05/09 03:41:27;;;;;;;9.83;6.73;;;;;;;;;;4955310;29;20227;-73
2023/05/09 03:44:31;;;;;;;9.33;6.33;;;;;;;;;;4955666;29;20203;-73
2023/05/09 03:47:37;;;;;;;10.03;6.43;;;;;;;;;;4943402;29;20183;-73
2023/05/09 03:50:42;;;;;;;10.30;6.17;;;;;;;;;;4965608;28;20183;-73
2023/05/09 03:53:49;;;;;;;7.40;6.30;;;;;;;;;;4966130;28;20524;-73
2023/05/09 03:56:53;;;;;;;8.93;5.87;;;;;;;;;;4965620;28;20212;-72
2023/05/09 03:59:57;;;;;;;7.20;6.00;;;;;;;;;;4965421;28;20187;-73
2023/05/09 04:03:03;;;;;;;9.10;6.37;;;;;;;;;;4965407;28;20694;-73
2023/05/09 04:06:12;;;;;;;10.73;6.63;;;;;;;;;;4965411;28;20176;-73
2023/05/09 04:09:20;;;;;;;12.57;6.47;;;;;;;;;;4943104;29;20183;-73
2023/05/09 04:12:25;;;;;;;8.50;5.83;;;;;;;;;;4943264;29;20214;-72
2023/05/09 04:15:29;;;;;;;8.60;6.77;;;;;;;;;;4943013;29;20183;-73
2023/05/09 04:18:38;;;;;;;10.23;6.30;;;;;;;;;;4943263;29;20543;-72
2023/05/09 04:21:42;;;;;;;8.43;6.60;;;;;;;;;;4943284;29;20223;-73
2023/05/09 04:24:46;;;;;;;8.70;6.33;;;;;;;;;;4965321;28;20190;-73
2023/05/09 04:27:51;;;;;;;9.17;6.47;;;;;;;;;;4954845;29;20653;-74
2023/05/09 04:30:55;;;;;;;23.40;8.37;;;;;;;;;;4965207;28;20191;-72
2023/05/09 04:33:59;;;;;;;7.43;6.47;;;;;;;;;;4964970;28;20188;-72
2023/05/09 04:37:06;;;;;;;8.47;6.67;;;;;;;;;;4965358;28;20207;-72
2023/05/09 04:40:11;;;;;;;6.37;5.70;;;;;;;;;;4965458;28;20180;-72
2023/05/09 04:43:25;;;;;;;7.87;5.57;;;;;;;;;;4942820;29;20212;-73
2023/05/09 04:46:29;;;;;;;6.20;5.27;;;;;;;;;;4953718;29;20195;-73
2023/05/09 04:49:34;;;;;;;6.47;5.50;;;;;;;;;;4953828;28;20211;-73
2023/05/09 04:52:38;;;;;;;7.90;5.20;;;;;;;;;;4968414;28;20663;-72
2023/05/09 04:55:43;;;;;;;14.17;5.83;;;;;;;;;;4957331;29;20184;-72
2023/05/09 04:58:47;;;;;;;9.67;6.10;;;;;;;;;;4968859;28;20180;-73
2023/05/09 05:01:52;;;;;;;5.87;5.00;;;;;;;;;;4946848;29;20670;-72
2023/05/09 05:04:58;;;;;;;6.67;5.17;;;;;;;;;;4979494;22;20188;-76
2023/05/09 05:08:03;;;;;;;6.27;5.03;;;;;;;;;;5024260;28;20212;-73
2023/05/09 05:11:12;;;;;;;28.07;9.83;;;;;;;;;;5011038;28;20185;-75
2023/05/09 05:14:17;;;;;;;7.40;4.70;;;;;;;;;;5004687;28;20178;-74
2023/05/09 05:17:21;;;;;;;6.57;5.07;;;;;;;;;;5004775;28;20216;-74
2023/05/09 05:20:25;;;;;;;6.80;4.97;;;;;;;;;;5004578;28;20201;-74
2023/05/09 05:23:29;;;;;;;8.60;4.90;;;;;;;;;;5004383;28;20201;-73
2023/05/09 05:26:33;;;;;;;5.53;4.80;;;;;;;;;;5004791;28;20185;-74
2023/05/09 05:29:37;;;;;;;5.50;4.20;;;;;;;;;;5004432;28;20181;-74
2023/05/09 05:32:42;;;;;;;7.20;4.73;;;;;;;;;;5020922;28;20221;-74
2023/05/09 05:35:48;;;;;;;7.80;4.90;;;;;;;;;;5008904;28;20197;-74
2023/05/09 05:38:52;;;;;;;5.57;4.50;;;;;;;;;;5008776;28;20186;-74
2023/05/09 05:41:56;;;;;;;6.73;3.97;;;;;;;;;;5020472;28;20225;-74
2023/05/09 05:45:03;;;;;;;7.33;4.37;;;;;;;;;;5008274;28;20660;-74
2023/05/09 05:48:08;;;;;;;6.40;4.87;;;;;;;;;;4996933;28;20182;-74
2023/05/09 05:51:12;;;;;;;6.50;4.73;;;;;;;;;;4996058;28;20181;-74
2023/05/09 05:54:18;;;;;;;10.07;4.33;;;;;;;;;;5007769;28;20181;-74
2023/05/09 05:57:22;;;;;;;5.83;4.87;;;;;;;;;;4995902;28;20537;-74
2023/05/09 06:00:27;;;;;;;7.33;5.10;;;;;;;;;;5019302;28;20194;-74
2023/05/09 06:03:38;;;;;;;10.27;4.57;;;;;;;;;;4994023;28;20182;-74
2023/05/09 06:06:44;;;;;;;5.97;4.50;;;;;;;;;;5005959;28;20209;-74
2023/05/09 06:09:48;;;;;;;13.20;5.10;;;;;;;;;;5005758;28;20182;-75
2023/05/09 06:12:53;;;;;;;11.10;5.33;;;;;;;;;;5005791;28;20217;-74
2023/05/09 06:15:57;;;;;;;6.50;4.87;;;;;;;;;;4994395;28;20178;-74
2023/05/09 06:19:01;;;;;;;6.83;4.93;;;;;;;;;;5017087;28;20181;-74
2023/05/09 06:22:05;;;;;;;12.57;5.17;;;;;;;;;;4993404;28;20561;-74
2023/05/09 06:25:09;;;;;;;6.40;5.20;;;;;;;;;;4993297;28;20181;-74
2023/05/09 06:28:14;;;;;;;11.30;5.13;;;;;;;;;;4993247;28;20173;-74
2023/05/09 06:31:18;;;;;;;6.23;4.97;;;;;;;;;;5004538;28;20217;-74
2023/05/09 06:34:22;;;;;;;7.40;5.00;;;;;;;;;;5004245;28;20181;-74
2023/05/09 06:37:26;;;;;;;10.60;5.37;;;;;;;;;;5016522;28;20217;-74
2023/05/09 06:40:30;;;;;;;6.17;4.90;;;;;;;;;;5015486;28;20807;-74
2023/05/09 06:43:34;;;;;;;6.87;5.10;;;;;;;;;;5003334;28;20178;-74
2023/05/09 06:46:38;;;;;;;6.00;5.37;;;;;;;;;;4992798;28;20201;-74
2023/05/09 06:49:42;;;;;;;7.43;6.00;;;;;;;;;;5003089;28;20197;-74
2023/05/09 06:52:47;;;;;;;5.73;4.80;;;;;;;;;;5002830;28;20217;-74
2023/05/09 06:55:51;;;;;;;6.27;4.73;;;;;;;;;;5015412;28;20186;-74
2023/05/09 06:58:56;;;;;;;6.93;5.17;;;;;;;;;;5015001;28;20209;-75
2023/05/09 07:02:00;;;;;;;8.93;5.23;;;;;;;;;;5014592;28;20225;-74
2023/05/09 07:05:04;;;;;;;7.50;5.13;;;;;;;;;;5002601;28;20197;-74
2023/05/09 07:08:09;;;;;;;9.40;5.30;;;;;;;;;;5014618;28;20189;-74
2023/05/09 07:11:13;;;;;;;8.83;5.60;;;;;;;;;;5015193;28;20177;-74
2023/05/09 07:14:17;;;;;;;7.53;5.27;;;;;;;;;;4980327;28;20181;-75
2023/05/09 07:17:21;;;;;;;8.30;5.83;;;;;;;;;;5014450;28;20217;-75
2023/05/09 07:20:26;;;;;;;8.10;5.83;;;;;;;;;;4980374;28;20205;-74
2023/05/09 07:23:30;;;;;;;7.13;5.97;;;;;;;;;;4991022;28;20197;-74
2023/05/09 07:26:35;;;;;;;9.10;5.10;;;;;;;;;;5003075;28;20509;-75
2023/05/09 07:29:39;;;;;;;6.57;5.43;;;;;;;;;;5002501;28;20510;-74
2023/05/09 07:32:43;;;;;;;6.53;5.27;;;;;;;;;;5014367;28;20564;-75
2023/05/09 07:35:47;;;;;;;7.33;5.43;;;;;;;;;;5014615;28;20185;-74
2023/05/09 07:38:52;;;;;;;4.97;4.43;;;;;;;;;;4991431;28;20197;-75
2023/05/09 07:41:56;;;;;;;5.73;4.70;;;;;;;;;;5002287;28;20233;-75
2023/05/09 07:45:00;;;;;;;6.60;5.60;;;;;;;;;;5002420;28;20178;-75
2023/05/09 07:48:04;;;;;;;5.60;4.90;;;;;;;;;;5013870;28;20193;-74
2023/05/09 07:51:08;;;;;;;6.87;5.00;;;;;;;;;;5014028;28;20181;-74
2023/05/09 07:54:13;;;;;;;5.50;4.83;;;;;;;;;;5014032;28;20181;-74
2023/05/09 07:57:17;;;;;;;6.43;5.00;;;;;;;;;;5001926;28;20185;-75
2023/05/09 08:00:22;;;;;;;23.90;5.53;;;;;;;;;;5014135;28;20181;-75
2023/05/09 08:03:26;;;;;;;8.27;4.33;;;;;;;;;;5013876;28;20514;-75
2023/05/09 08:06:31;;;;;;;4.73;4.23;;;;;;;;;;5012693;28;20204;-74
2023/05/09 08:09:36;;;;;;;7.47;4.70;;;;;;;;;;5001559;28;20174;-75
2023/05/09 08:12:40;;;;;;;5.23;4.60;;;;;;;;;;5001574;28;20213;-75
2023/05/09 08:15:44;;;;;;;5.60;4.80;;;;;;;;;;5013812;28;20181;-75
2023/05/09 08:18:48;;;;;;;6.90;4.63;;;;;;;;;;5013540;28;20220;-75
2023/05/09 08:21:52;;;;;;;6.13;4.40;;;;;;;;;;5013116;28;20229;-75
2023/05/09 08:24:56;;;;;;;7.43;4.43;;;;;;;;;;5014306;28;20180;-75
2023/05/09 08:28:01;;;;;;;7.13;4.77;;;;;;;;;;5005607;28;20170;-74
2023/05/09 08:31:05;;;;;;;5.33;4.77;;;;;;;;;;5017606;28;20178;-75
2023/05/09 08:34:09;;;;;;;14.83;5.27;;;;;;;;;;5017375;28;20205;-74
2023/05/09 08:37:13;;;;;;;6.57;4.23;;;;;;;;;;5005152;28;20192;-75
2023/05/09 08:40:18;;;;;;;4.90;4.40;;;;;;;;;;5017645;28;20203;-76
2023/05/09 08:43:23;;;;;;;10.37;4.57;;;;;;;;;;5017273;28;20221;-74
2023/05/09 08:46:32;;;;;;;4.90;4.40;;;;;;;;;;5017626;28;20194;-75
2023/05/09 08:49:37;;;;;;;6.30;5.10;;;;;;;;;;5005667;28;20505;-75
2023/05/09 08:52:41;;;;;;;9.87;4.60;;;;;;;;;;5017213;28;20214;-75
2023/05/09 08:55:45;;;;;;;6.37;4.90;;;;;;;;;;5016946;28;20181;-75
2023/05/09 08:58:50;;;;;;;12.83;4.53;;;;;;;;;;5016752;28;20205;-74
2023/05/09 09:01:54;;;;;;;5.07;4.23;;;;;;;;;;5017014;28;20694;-75
2023/05/09 09:04:58;;;;;;;6.25;4.40;;;;;;;;;;4993927;28;20179;-75
2023/05/09 09:08:06;;;;;;;8.75;4.47;;;;;;;;;;5016827;28;20199;-75
2023/05/09 09:11:12;;;;;;;6.35;4.30;;;;;;;;;;5005089;28;20189;-76
2023/05/09 09:14:24;;;;;;;4.93;4.25;;;;;;;;;;5016797;28;20182;-74
2023/05/09 09:17:29;;;;;;;5.25;4.75;;;;;;;;;;5016674;28;20188;-75
2023/05/09 09:20:36;;;;;;;5.53;4.53;;;;;;;;;;5016988;28;20189;-75
2023/05/09 09:23:42;;;;;;;6.50;4.75;;;;;;;;;;5016907;28;20190;-75
2023/05/09 09:26:48;;;;;;;8.63;5.13;;;;;;;;;;5016515;28;20187;-75
2023/05/09 09:29:52;;;;;;;7.25;4.55;;;;;;;;;;5016664;28;20182;-74
2023/05/09 09:32:59;;;;;;;5.20;4.40;;;;;;;;;;5004340;28;20231;-74
2023/05/09 09:36:04;;;;;;;9.00;4.95;;;;;;;;;;5004159;28;20200;-75
2023/05/09 09:39:11;;;;;;;6.38;4.20;;;;;;;;;;5016091;28;20200;-75
2023/05/09 09:42:16;;;;;;;7.50;4.15;;;;;;;;;;5016002;28;20214;-75
2023/05/09 09:45:21;;;;;;;7.15;4.35;;;;;;;;;;5016061;28;20178;-75
2023/05/09 09:48:33;;;;;;;6.90;4.80;;;;;;;;;;5015962;28;20183;-75
2023/05/09 09:51:37;;;;;;;8.82;5.72;;;;;;;;;;5015278;28;20326;-75
2023/05/09 09:54:44;;;;;;;7.80;4.50;;;;;;;;;;5015717;28;20198;-75
2023/05/09 09:57:48;;;;;;;11.15;4.75;;;;;;;;;;5015706;28;20185;-74
2023/05/09 10:01:10;;;;;;;19.83;4.72;;;;;;;;;;5003968;28;20638;-74
2023/05/09 10:04:16;;;;;;;7.20;4.57;;;;;;;;;;5015858;28;20191;-75
2023/05/09 10:07:22;;;;;;;7.45;4.80;;;;;;;;;;5016128;28;20183;-75
2023/05/09 10:10:32;;;;;;;8.82;5.13;;;;;;;;;;5015703;28;20181;-74
2023/05/09 10:13:37;;;;;;;11.38;4.40;;;;;;;;;;5015543;28;20529;-74
2023/05/09 10:16:42;;;;;;;6.70;4.00;;;;;;;;;;5015569;28;20546;-75
2023/05/09 10:19:47;;;;;;;30.27;11.63;;;;;;;;;;5015570;28;20207;-74
2023/05/09 10:22:56;;;;;;;28.50;12.25;;;;;;;;;;5003174;28;20235;-73
2023/05/09 10:26:16;;;;;;;34.08;14.32;;;;;;;;;;5015669;28;20671;-73
2023/05/09 10:29:23;;;;;;;10.98;4.93;;;;;;;;;;5015867;28;20638;-73
2023/05/09 10:32:35;;;;;;;19.35;8.90;;;;;;;;;;5003103;28;20216;-73
2023/05/09 10:35:44;;;;;;;27.90;13.00;;;;;;;;;;5003064;28;20184;-74
2023/05/09 10:38:50;;;;;;;5.00;4.07;;;;;;;;;;5003123;28;20214;-74
2023/05/09 10:41:57;;;;;;;11.00;6.95;;;;;;;;;;5014956;28;20225;-74
2023/05/09 10:45:01;;;;;;;6.63;4.20;;;;;;;;;;5015712;28;20175;-74
2023/05/09 10:48:07;;;;;;;7.32;4.72;;;;;;;;;;5014417;28;20175;-74
2023/05/09 10:51:12;;;;;;;5.95;4.63;;;;;;;;;;5014911;28;20184;-74
2023/05/09 10:54:27;;;;;;;9.45;4.90;;;;;;;;;;5014592;28;20512;-74
2023/05/09 10:57:32;;;;;;;4.50;3.50;;;;;;;;;;5015113;28;20524;-75
2023/05/09 11:00:40;;;;;;;5.10;3.60;;;;;;;;;;5014921;28;20518;-74
2023/05/09 11:03:58;;;;;;;5.18;3.60;;;;;;;;;;5014442;28;20188;-75
2023/05/09 11:07:21;;;;;;;5.68;3.78;;;;;;;;;;5037259;22;20525;-73
2023/05/09 11:10:25;;;;;;;4.35;3.83;;;;;;;;;;5074149;28;20182;-71
2023/05/09 11:13:31;;;;;;;6.60;4.40;;;;;;;;;;5041863;28;20176;-71
2023/05/09 11:16:58;;;;;;;5.40;4.00;;;;;;;;;;5053851;28;20185;-71
2023/05/09 11:20:07;;;;;;;10.55;5.40;;;;;;;;;;5053913;28;20561;-70
2023/05/09 11:23:16;;;;;;;9.25;4.70;;;;;;;;;;5053576;28;20227;-71
2023/05/09 11:26:21;;;;;;;6.45;4.25;;;;;;;;;;5054091;28;20635;-71
2023/05/09 11:29:29;;;;;;;5.07;4.10;;;;;;;;;;5041510;28;20173;-71
2023/05/09 11:32:40;;;;;;;5.20;4.00;;;;;;;;;;5053569;28;20566;-70
2023/05/09 11:35:44;;;;;;;5.80;3.70;;;;;;;;;;5041185;28;20179;-71
2023/05/09 11:38:59;;;;;;;6.60;3.78;;;;;;;;;;5053277;28;20215;-71
2023/05/09 11:42:04;;;;;;;6.15;4.03;;;;;;;;;;5053259;28;20219;-69
2023/05/09 11:45:09;;;;;;;5.90;4.13;;;;;;;;;;5053811;28;20641;-71
2023/05/09 11:48:13;;;;;;;5.00;3.95;;;;;;;;;;5053201;28;20199;-71
2023/05/09 11:51:18;;;;;;;7.07;3.95;;;;;;;;;;5053046;28;20194;-71
2023/05/09 11:54:23;;;;;;;5.57;3.85;;;;;;;;;;5041145;28;20186;-71
2023/05/09 11:57:28;;;;;;;4.68;3.40;;;;;;;;;;5041099;28;20183;-71
2023/05/09 12:00:32;;;;;;;4.82;3.72;;;;;;;;;;5052710;28;20213;-71
2023/05/09 12:03:44;;;;;;;4.45;4.05;;;;;;;;;;5053320;28;20186;-71
2023/05/09 12:06:48;;;;;;;3.88;3.47;;;;;;;;;;5052853;28;20198;-71
2023/05/09 12:09:52;;;;;;;8.48;4.07;;;;;;;;;;5052873;28;20190;-71
2023/05/09 12:12:56;;;;;;;5.32;4.03;;;;;;;;;;5029359;28;20222;-70
2023/05/09 12:16:01;;;;;;;4.38;3.97;;;;;;;;;;5040944;28;20183;-71
2023/05/09 12:19:08;;;;;;;7.30;4.22;;;;;;;;;;5040881;28;20210;-71
2023/05/09 12:22:12;;;;;;;4.80;3.97;;;;;;;;;;5040816;28;20215;-71
2023/05/09 12:25:16;;;;;;;4.70;4.20;;;;;;;;;;5041165;28;20186;-71
2023/05/09 12:28:25;;;;;;;6.93;4.75;;;;;;;;;;5040643;28;20200;-72
2023/05/09 12:31:30;;;;;;;5.13;4.28;;;;;;;;;;5053439;28;20218;-71
2023/05/09 12:34:34;;;;;;;6.35;4.05;;;;;;;;;;5053053;28;20184;-71
2023/05/09 12:37:38;;;;;;;4.68;4.22;;;;;;;;;;5040762;28;20179;-70
2023/05/09 12:40:47;;;;;;;4.10;3.80;;;;;;;;;;5040376;28;20216;-71
2023/05/09 12:43:51;;;;;;;4.80;4.40;;;;;;;;;;5029329;28;20178;-71
2023/05/09 12:47:00;;;;;;;5.68;4.70;;;;;;;;;;5052585;28;20199;-71
2023/05/09 12:50:06;;;;;;;5.18;4.68;;;;;;;;;;5029258;28;20176;-72
2023/05/09 12:53:10;;;;;;;4.90;4.30;;;;;;;;;;5052411;28;20222;-72
2023/05/09 12:56:19;;;;;;;6.65;4.03;;;;;;;;;;5052668;28;20183;-71
2023/05/09 12:59:27;;;;;;;8.65;4.30;;;;;;;;;;5052629;28;20206;-73
2023/05/09 13:02:40;;;;;;;4.50;4.10;;;;;;;;;;5040655;28;20219;-72
2023/05/09 13:05:53;;;;;;;6.32;3.42;;;;;;;;;;5052614;28;20179;-73
2023/05/09 13:09:00;;;;;;;7.35;3.70;;;;;;;;;;5039999;28;20200;-72
2023/05/09 13:12:04;;;;;;;4.05;3.40;;;;;;;;;;5042221;28;20215;-73
2023/05/09 13:15:09;;;;;;;3.60;3.30;;;;;;;;;;5055993;28;20645;-72
2023/05/09 13:18:13;;;;;;;5.75;4.07;;;;;;;;;;5055820;28;20183;-72
2023/05/09 13:21:17;;;;;;;5.97;4.38;;;;;;;;;;5055739;28;20639;-72
2023/05/09 13:24:21;;;;;;;3.97;3.15;;;;;;;;;;5056306;28;20628;-73
2023/05/09 13:27:26;;;;;;;6.85;4.40;;;;;;;;;;5055973;28;20206;-73
2023/05/09 13:30:31;;;;;;;4.75;4.07;;;;;;;;;;5056199;28;20180;-72
2023/05/09 13:33:35;;;;;;;5.60;3.90;;;;;;;;;;5055555;28;20203;-72
2023/05/09 13:36:39;;;;;;;6.65;3.38;;;;;;;;;;5055748;28;20201;-73
2023/05/09 13:39:44;;;;;;;4.28;3.55;;;;;;;;;;5043227;28;20206;-73
2023/05/09 13:42:47;;;;;;;4.47;3.60;;;;;;;;;;5043092;28;20216;-72
2023/05/09 13:45:51;;;;;;;7.07;4.10;;;;;;;;;;5055326;28;20182;-71
2023/05/09 13:48:56;;;;;;;7.70;4.18;;;;;;;;;;5043288;28;20181;-71
2023/05/09 13:52:00;;;;;;;6.53;3.70;;;;;;;;;;5043060;28;20219;-71
2023/05/09 13:55:05;;;;;;;3.92;3.53;;;;;;;;;;5055686;28;20502;-71
2023/05/09 13:58:09;;;;;;;4.07;3.55;;;;;;;;;;5055096;28;20188;-71
2023/05/09 14:01:13;;;;;;;4.60;3.85;;;;;;;;;;5043261;28;20213;-72
2023/05/09 14:04:17;;;;;;;4.50;4.10;;;;;;;;;;5055100;28;20182;-72
2023/05/09 14:07:22;;;;;;;4.78;3.20;;;;;;;;;;5055506;28;20205;-71
2023/05/09 14:10:26;;;;;;;5.07;3.67;;;;;;;;;;5043023;28;20184;-72
2023/05/09 14:13:30;;;;;;;4.15;3.65;;;;;;;;;;5043001;28;20186;-72
2023/05/09 14:16:35;;;;;;;7.38;3.60;;;;;;;;;;5055304;28;20214;-73
2023/05/09 14:19:39;;;;;;;6.22;3.47;;;;;;;;;;5055262;28;20208;-73
2023/05/09 14:22:43;;;;;;;5.78;3.60;;;;;;;;;;5042100;28;20222;-71
2023/05/09 14:25:47;;;;;;;8.98;4.28;;;;;;;;;;5042723;28;20531;-72
2023/05/09 14:28:54;;;;;;;9.25;3.97;;;;;;;;;;5043109;28;20182;-73
2023/05/09 14:31:58;;;;;;;7.20;4.28;;;;;;;;;;5054877;28;20204;-71
2023/05/09 14:35:03;;;;;;;4.93;3.40;;;;;;;;;;5054946;28;20665;-72
2023/05/09 14:38:07;;;;;;;4.60;3.55;;;;;;;;;;5042223;28;20199;-74
2023/05/09 14:41:14;;;;;;;5.18;3.50;;;;;;;;;;5042030;28;20221;-73
2023/05/09 14:44:18;;;;;;;5.72;3.10;;;;;;;;;;5042380;28;20194;-72
2023/05/09 14:47:22;;;;;;;6.88;3.28;;;;;;;;;;5030687;28;20197;-71
2023/05/09 14:50:26;;;;;;;98.63;11.15;;;;;;;;;;5054372;28;20663;-71
2023/05/09 14:53:34;;;;;;;3.72;3.03;;;;;;;;;;5030691;28;20655;-73
2023/05/09 14:56:38;;;;;;;7.93;2.95;;;;;;;;;;5042371;28;20179;-72
2023/05/09 14:59:42;;;;;;;5.65;2.97;;;;;;;;;;5042164;28;20216;-73
2023/05/09 15:02:47;;;;;;;4.35;2.90;;;;;;;;;;5042192;28;20220;-73
2023/05/09 15:05:51;;;;;;;7.88;3.92;;;;;;;;;;5054327;28;20671;-71
2023/05/09 15:08:56;;;;;;;4.43;3.80;;;;;;;;;;5054223;28;20206;-72
2023/05/09 15:12:00;;;;;;;5.43;3.60;;;;;;;;;;5054320;28;20214;-72
2023/05/09 15:15:13;;;;;;;14.10;3.87;;;;;;;;;;5053830;28;20645;-72
2023/05/09 15:18:18;;;;;;;15.70;3.90;;;;;;;;;;5041851;28;20181;-72
2023/05/09 15:21:23;;;;;;;6.40;3.10;;;;;;;;;;5053528;28;20224;-72
2023/05/09 15:24:27;;;;;;;3.83;3.13;;;;;;;;;;5041913;28;20187;-72
2023/05/09 15:27:31;;;;;;;6.60;3.23;;;;;;;;;;5054225;28;20186;-72
2023/05/09 15:30:35;;;;;;;3.93;3.37;;;;;;;;;;5030276;28;20508;-72
2023/05/09 15:33:39;;;;;;;41.67;5.70;;;;;;;;;;5041086;28;20181;-72
2023/05/09 15:36:43;;;;;;;5.53;3.60;;;;;;;;;;5054011;28;20191;-72
2023/05/09 15:39:47;;;;;;;7.80;4.20;;;;;;;;;;5053312;28;20208;-72
2023/05/09 15:42:51;;;;;;;6.50;4.13;;;;;;;;;;5053464;28;20220;-72
2023/05/09 15:45:55;;;;;;;4.87;3.97;;;;;;;;;;5053562;28;20186;-72
2023/05/09 15:49:00;;;;;;;4.77;4.30;;;;;;;;;;5053366;28;20185;-72
2023/05/09 15:52:06;;;;;;;7.90;4.50;;;;;;;;;;5053606;28;20211;-72
2023/05/09 15:55:11;;;;;;;4.30;3.47;;;;;;;;;;5041584;28;20184;-72
2023/05/09 15:58:15;;;;;;;4.57;4.17;;;;;;;;;;5052955;28;20200;-71
2023/05/09 16:01:20;;;;;;;6.80;4.33;;;;;;;;;;5040893;28;20237;-72
2023/05/09 16:04:24;;;;;;;6.97;4.37;;;;;;;;;;5053353;28;20184;-72
2023/05/09 16:07:28;;;;;;;5.00;4.50;;;;;;;;;;5040888;28;20204;-72
2023/05/09 16:10:33;;;;;;;6.20;4.63;;;;;;;;;;5040995;28;20176;-72
2023/05/09 16:13:37;;;;;;;12.80;5.10;;;;;;;;;;5052992;28;20654;-72
2023/05/09 16:16:42;;;;;;;6.13;5.53;;;;;;;;;;5053019;28;20200;-72
2023/05/09 16:19:46;;;;;;;6.37;5.17;;;;;;;;;;5052718;28;20188;-72
2023/05/09 16:22:50;;;;;;;5.60;5.00;;;;;;;;;;5040334;28;20216;-72
2023/05/09 16:25:54;;;;;;;7.50;5.60;;;;;;;;;;5052651;28;20192;-72
2023/05/09 16:29:00;;;;;;;8.77;5.80;;;;;;;;;;5040705;28;20635;-72
2023/05/09 16:32:06;;;;;;;8.20;5.40;;;;;;;;;;5053059;28;20219;-72
2023/05/09 16:35:11;;;;;;;6.83;6.13;;;;;;;;;;5040600;28;20180;-71
2023/05/09 16:38:15;;;;;;;8.77;5.80;;;;;;;;;;5052882;28;20184;-72
2023/05/09 16:41:20;;;;;;;9.07;6.83;;;;;;;;;;5052520;28;20232;-71
2023/05/09 16:44:24;;;;;;;13.57;7.37;;;;;;;;;;5052506;28;20195;-72
2023/05/09 16:47:28;;;;;;;11.57;7.10;;;;;;;;;;5055570;28;20199;-71
2023/05/09 16:50:32;;;;;;;9.50;6.77;;;;;;;;;;5056749;28;20172;-72
2023/05/09 16:53:36;;;;;;;8.30;6.53;;;;;;;;;;5056783;28;20180;-71
2023/05/09 16:56:41;;;;;;;10.13;6.70;;;;;;;;;;5056433;28;20181;-71
2023/05/09 16:59:46;;;;;;;8.60;7.20;;;;;;;;;;5043896;28;20184;-72
2023/05/09 17:02:50;;;;;;;10.83;6.90;;;;;;;;;;5043928;28;20207;-72
2023/05/09 17:05:54;;;;;;;12.77;7.60;;;;;;;;;;5056362;28;20176;-72
2023/05/09 17:08:59;;;;;;;19.03;8.13;;;;;;;;;;5043624;28;20547;-72
2023/05/09 17:12:03;;;;;;;9.87;7.80;;;;;;;;;;5056146;28;20219;-71
2023/05/09 17:15:08;;;;;;;10.00;7.77;;;;;;;;;;5056233;28;20184;-72
2023/05/09 17:18:13;;;;;;;9.30;7.90;;;;;;;;;;5043767;28;20181;-71
2023/05/09 17:21:19;;;;;;;11.03;7.37;;;;;;;;;;5056188;28;20207;-71
2023/05/09 17:24:22;;;;;;;8.93;6.97;;;;;;;;;;5056104;28;20508;-72
2023/05/09 17:27:26;;;;;;;9.97;8.30;;;;;;;;;;5055853;28;20184;-72
2023/05/09 17:30:31;;;;;;;13.00;7.30;;;;;;;;;;5043731;28;20172;-72
2023/05/09 17:33:35;;;;;;;10.87;7.27;;;;;;;;;;5043391;28;20180;-72
2023/05/09 17:36:39;;;;;;;8.70;6.80;;;;;;;;;;5055824;28;20631;-71
2023/05/09 17:39:43;;;;;;;7.47;6.23;;;;;;;;;;5032109;28;20184;-72
2023/05/09 17:42:48;;;;;;;7.90;6.73;;;;;;;;;;5055412;28;20203;-71
2023/05/09 17:45:52;;;;;;;14.70;6.63;;;;;;;;;;5055690;28;20180;-72
2023/05/09 17:48:56;;;;;;;7.50;6.70;;;;;;;;;;5055215;28;20195;-72
2023/05/09 17:52:00;;;;;;;11.47;6.17;;;;;;;;;;5055658;28;20683;-72
2023/05/09 17:55:04;;;;;;;7.33;6.27;;;;;;;;;;5042982;28;20184;-71
2023/05/09 17:58:09;;;;;;;8.07;6.77;;;;;;;;;;5053865;28;20172;-72
2023/05/09 18:01:14;;;;;;;8.47;6.30;;;;;;;;;;5042922;28;20548;-72
2023/05/09 18:04:18;;;;;;;7.73;6.17;;;;;;;;;;5055252;28;20200;-72
2023/05/09 18:07:23;;;;;;;7.87;5.93;;;;;;;;;;5042893;28;20679;-72
2023/05/09 18:10:27;;;;;;;13.33;6.27;;;;;;;;;;5054909;28;20172;-72
2023/05/09 18:13:33;;;;;;;7.90;6.07;;;;;;;;;;5031434;28;20180;-72
2023/05/09 18:16:37;;;;;;;7.77;5.80;;;;;;;;;;5054774;28;20184;-72
2023/05/09 18:19:41;;;;;;;9.33;5.90;;;;;;;;;;5055076;28;20184;-72
2023/05/09 18:22:47;;;;;;;8.60;6.00;;;;;;;;;;5031735;28;20212;-72
2023/05/09 18:25:52;;;;;;;7.83;5.77;;;;;;;;;;5054639;28;20270;-72